sensor_id;sensor_type;location;lat;lon;timestamp;P1;durP1;ratioP1;P2;durP2;ratioP2
50002;SDS011;35889;51.442;6.408;2023-02-28T00:00:48;1.00;;;1.00;;
50002;SDS011;35889;51.442;6.408;2023-02-28T00:03:13;1.10;;;1.10;;
50002;SDS011;35889;51.442;6.408;2023-02-28T00:05:38;1.10;;;1.10;;
50002;SDS011;35889;51.442;6.408;2023-02-28T00:08:04;0.95;;;0.95;;
50002;SDS011;35889;51.442;6.408;2023-02-28T00:10:30;1.10;;;1.10;;
50002;SDS011;35889;51.442;6.408;2023-02-28T00:12:59;1.00;;;1.00;;
50002;SDS011;35889;51.442;6.408;2023-02-28T00:15:27;0.98;;;0.98;;
50002;SDS011;35889;51.442;6.408;2023-02-28T00:17:53;1.10;;;1.10;;
50002;SDS011;35889;51.442;6.408;2023-02-28T00:20:18;1.10;;;1.10;;
50002;SDS011;35889;51.442;6.408;2023-02-28T00:22:45;1.10;;;1.10;;
50002;SDS011;35889;51.442;6.408;2023-02-28T00:25:16;1.10;;;1.10;;
50002;SDS011;35889;51.442;6.408;2023-02-28T00:27:43;1.00;;;1.00;;
50002;SDS011;35889;51.442;6.408;2023-02-28T00:30:11;1.08;;;1.08;;
50002;SDS011;35889;51.442;6.408;2023-02-28T00:32:38;1.10;;;1.10;;
50002;SDS011;35889;51.442;6.408;2023-02-28T00:35:03;1.02;;;1.02;;
50002;SDS011;35889;51.442;6.408;2023-02-28T00:37:30;1.10;;;1.10;;
50002;SDS011;35889;51.442;6.408;2023-02-28T00:39:56;1.00;;;1.00;;
50002;SDS011;35889;51.442;6.408;2023-02-28T00:42:21;1.00;;;1.00;;
50002;SDS011;35889;51.442;6.408;2023-02-28T00:44:47;1.00;;;1.00;;
50002;SDS011;35889;51.442;6.408;2023-02-28T00:47:12;1.10;;;1.10;;
50002;SDS011;35889;51.442;6.408;2023-02-28T00:49:37;1.08;;;1.08;;
50002;SDS011;35889;51.442;6.408;2023-02-28T00:52:03;1.10;;;1.10;;
50002;SDS011;35889;51.442;6.408;2023-02-28T00:54:28;1.10;;;1.10;;
50002;SDS011;35889;51.442;6.408;2023-02-28T00:56:54;1.10;;;1.10;;
50002;SDS011;35889;51.442;6.408;2023-02-28T00:59:19;1.00;;;1.00;;
50002;SDS011;35889;51.442;6.408;2023-02-28T01:01:45;1.10;;;1.10;;
50002;SDS011;35889;51.442;6.408;2023-02-28T01:04:11;1.10;;;1.10;;
50002;SDS011;35889;51.442;6.408;2023-02-28T01:06:37;1.10;;;1.10;;
50002;SDS011;35889;51.442;6.408;2023-02-28T01:09:03;1.00;;;1.00;;
50002;SDS011;35889;51.442;6.408;2023-02-28T01:11:29;1.10;;;1.10;;
50002;SDS011;35889;51.442;6.408;2023-02-28T01:13:55;1.10;;;1.10;;
50002;SDS011;35889;51.442;6.408;2023-02-28T01:16:20;1.10;;;1.10;;
50002;SDS011;35889;51.442;6.408;2023-02-28T01:18:46;1.10;;;1.10;;
50002;SDS011;35889;51.442;6.408;2023-02-28T01:21:12;1.10;;;1.10;;
50002;SDS011;35889;51.442;6.408;2023-02-28T01:23:39;1.00;;;1.00;;
50002;SDS011;35889;51.442;6.408;2023-02-28T01:26:09;1.00;;;1.00;;
50002;SDS011;35889;51.442;6.408;2023-02-28T01:28:38;1.00;;;1.00;;
50002;SDS011;35889;51.442;6.408;2023-02-28T01:31:04;1.10;;;1.10;;
50002;SDS011;35889;51.442;6.408;2023-02-28T01:33:30;1.10;;;1.10;;
50002;SDS011;35889;51.442;6.408;2023-02-28T01:36:15;1.10;;;1.10;;
50002;SDS011;35889;51.442;6.408;2023-02-28T01:38:42;1.10;;;1.10;;
50002;SDS011;35889;51.442;6.408;2023-02-28T01:41:08;1.02;;;1.02;;
50002;SDS011;35889;51.442;6.408;2023-02-28T01:46:11;1.00;;;1.00;;
50002;SDS011;35889;51.442;6.408;2023-02-28T01:48:44;1.10;;;1.10;;
50002;SDS011;35889;51.442;6.408;2023-02-28T01:51:14;1.00;;;1.00;;
50002;SDS011;35889;51.442;6.408;2023-02-28T01:56:11;1.10;;;1.10;;
50002;SDS011;35889;51.442;6.408;2023-02-28T01:58:37;1.00;;;1.00;;
50002;SDS011;35889;51.442;6.408;2023-02-28T02:01:03;1.10;;;1.10;;
50002;SDS011;35889;51.442;6.408;2023-02-28T02:03:29;1.00;;;1.00;;
50002;SDS011;35889;51.442;6.408;2023-02-28T02:05:55;1.00;;;1.00;;
50002;SDS011;35889;51.442;6.408;2023-02-28T02:08:23;1.02;;;1.02;;
50002;SDS011;35889;51.442;6.408;2023-02-28T02:10:51;1.00;;;1.00;;
50002;SDS011;35889;51.442;6.408;2023-02-28T02:16:29;1.10;;;1.10;;
50002;SDS011;35889;51.442;6.408;2023-02-28T02:19:14;1.10;;;1.10;;
50002;SDS011;35889;51.442;6.408;2023-02-28T02:24:48;1.00;;;1.00;;
50002;SDS011;35889;51.442;6.408;2023-02-28T02:35:40;1.00;;;1.00;;
50002;SDS011;35889;51.442;6.408;2023-02-28T02:40:52;1.10;;;1.10;;
50002;SDS011;35889;51.442;6.408;2023-02-28T02:43:50;0.90;;;0.90;;
50002;SDS011;35889;51.442;6.408;2023-02-28T02:46:23;1.00;;;1.00;;
50002;SDS011;35889;51.442;6.408;2023-02-28T02:48:52;1.00;;;1.00;;
50002;SDS011;35889;51.442;6.408;2023-02-28T02:51:20;1.13;;;1.13;;
50002;SDS011;35889;51.442;6.408;2023-02-28T02:54:09;1.00;;;1.00;;
50002;SDS011;35889;51.442;6.408;2023-02-28T02:56:34;1.10;;;1.10;;
50002;SDS011;35889;51.442;6.408;2023-02-28T02:59:01;1.00;;;1.00;;
50002;SDS011;35889;51.442;6.408;2023-02-28T03:01:28;1.00;;;1.00;;
50002;SDS011;35889;51.442;6.408;2023-02-28T03:03:57;1.10;;;1.10;;
50002;SDS011;35889;51.442;6.408;2023-02-28T03:06:24;1.10;;;1.10;;
50002;SDS011;35889;51.442;6.408;2023-02-28T03:08:50;1.00;;;1.00;;
50002;SDS011;35889;51.442;6.408;2023-02-28T03:11:15;1.05;;;1.05;;
50002;SDS011;35889;51.442;6.408;2023-02-28T03:13:49;1.08;;;1.08;;
50002;SDS011;35889;51.442;6.408;2023-02-28T03:22:05;1.00;;;1.00;;
50002;SDS011;35889;51.442;6.408;2023-02-28T03:27:09;1.10;;;1.10;;
50002;SDS011;35889;51.442;6.408;2023-02-28T03:30:04;1.10;;;1.10;;
50002;SDS011;35889;51.442;6.408;2023-02-28T03:32:39;1.10;;;1.10;;
50002;SDS011;35889;51.442;6.408;2023-02-28T03:35:10;1.05;;;1.05;;
50002;SDS011;35889;51.442;6.408;2023-02-28T03:37:40;1.10;;;1.10;;
50002;SDS011;35889;51.442;6.408;2023-02-28T03:40:08;1.10;;;1.10;;
50002;SDS011;35889;51.442;6.408;2023-02-28T03:42:38;1.10;;;1.10;;
50002;SDS011;35889;51.442;6.408;2023-02-28T03:45:11;1.10;;;1.10;;
50002;SDS011;35889;51.442;6.408;2023-02-28T03:47:39;1.10;;;1.10;;
50002;SDS011;35889;51.442;6.408;2023-02-28T03:50:12;1.10;;;1.10;;
50002;SDS011;35889;51.442;6.408;2023-02-28T03:52:47;1.00;;;1.00;;
50002;SDS011;35889;51.442;6.408;2023-02-28T03:55:17;1.00;;;1.00;;
50002;SDS011;35889;51.442;6.408;2023-02-28T03:57:47;1.05;;;1.05;;
50002;SDS011;35889;51.442;6.408;2023-02-28T04:00:19;1.10;;;1.10;;
50002;SDS011;35889;51.442;6.408;2023-02-28T04:02:46;1.00;;;1.00;;
50002;SDS011;35889;51.442;6.408;2023-02-28T04:05:11;1.10;;;1.10;;
50002;SDS011;35889;51.442;6.408;2023-02-28T04:07:37;1.00;;;1.00;;
50002;SDS011;35889;51.442;6.408;2023-02-28T04:10:02;1.00;;;1.00;;
50002;SDS011;35889;51.442;6.408;2023-02-28T04:12:29;1.10;;;1.10;;
50002;SDS011;35889;51.442;6.408;2023-02-28T04:14:54;1.10;;;1.10;;
50002;SDS011;35889;51.442;6.408;2023-02-28T04:17:20;1.00;;;1.00;;
50002;SDS011;35889;51.442;6.408;2023-02-28T04:19:45;1.02;;;1.02;;
50002;SDS011;35889;51.442;6.408;2023-02-28T04:22:10;1.10;;;1.10;;
50002;SDS011;35889;51.442;6.408;2023-02-28T04:24:36;1.10;;;1.10;;
50002;SDS011;35889;51.442;6.408;2023-02-28T04:27:02;1.00;;;1.00;;
50002;SDS011;35889;51.442;6.408;2023-02-28T04:29:29;1.10;;;1.10;;
50002;SDS011;35889;51.442;6.408;2023-02-28T04:31:57;1.10;;;1.10;;
50002;SDS011;35889;51.442;6.408;2023-02-28T04:34:24;1.13;;;1.13;;
50002;SDS011;35889;51.442;6.408;2023-02-28T04:36:53;1.10;;;1.10;;
50002;SDS011;35889;51.442;6.408;2023-02-28T04:39:20;1.10;;;1.10;;
50002;SDS011;35889;51.442;6.408;2023-02-28T04:41:46;1.02;;;1.02;;
50002;SDS011;35889;51.442;6.408;2023-02-28T04:44:11;1.10;;;1.10;;
50002;SDS011;35889;51.442;6.408;2023-02-28T04:46:37;1.10;;;1.10;;
50002;SDS011;35889;51.442;6.408;2023-02-28T04:49:03;1.10;;;1.10;;
50002;SDS011;35889;51.442;6.408;2023-02-28T04:51:28;1.00;;;1.00;;
50002;SDS011;35889;51.442;6.408;2023-02-28T04:53:54;1.08;;;1.08;;
50002;SDS011;35889;51.442;6.408;2023-02-28T04:56:19;1.00;;;1.00;;
50002;SDS011;35889;51.442;6.408;2023-02-28T04:58:45;1.10;;;1.10;;
50002;SDS011;35889;51.442;6.408;2023-02-28T05:03:59;1.08;;;1.08;;
50002;SDS011;35889;51.442;6.408;2023-02-28T05:06:27;1.00;;;1.00;;
50002;SDS011;35889;51.442;6.408;2023-02-28T05:08:53;1.10;;;1.10;;
50002;SDS011;35889;51.442;6.408;2023-02-28T05:13:49;1.00;;;1.00;;
50002;SDS011;35889;51.442;6.408;2023-02-28T05:16:15;1.00;;;1.00;;
50002;SDS011;35889;51.442;6.408;2023-02-28T05:18:41;1.10;;;1.10;;
50002;SDS011;35889;51.442;6.408;2023-02-28T05:21:15;1.10;;;1.10;;
50002;SDS011;35889;51.442;6.408;2023-02-28T05:23:49;1.10;;;1.10;;
50002;SDS011;35889;51.442;6.408;2023-02-28T05:26:14;1.10;;;1.10;;
50002;SDS011;35889;51.442;6.408;2023-02-28T05:28:40;1.10;;;1.10;;
50002;SDS011;35889;51.442;6.408;2023-02-28T05:31:05;1.00;;;1.00;;
50002;SDS011;35889;51.442;6.408;2023-02-28T05:33:30;1.10;;;1.10;;
50002;SDS011;35889;51.442;6.408;2023-02-28T05:35:56;1.10;;;1.10;;
50002;SDS011;35889;51.442;6.408;2023-02-28T05:38:21;1.10;;;1.10;;
50002;SDS011;35889;51.442;6.408;2023-02-28T05:40:47;1.10;;;1.10;;
50002;SDS011;35889;51.442;6.408;2023-02-28T05:43:12;1.10;;;1.10;;
50002;SDS011;35889;51.442;6.408;2023-02-28T05:45:38;1.10;;;1.10;;
50002;SDS011;35889;51.442;6.408;2023-02-28T05:48:03;1.10;;;1.10;;
50002;SDS011;35889;51.442;6.408;2023-02-28T05:50:29;1.10;;;1.10;;
50002;SDS011;35889;51.442;6.408;2023-02-28T05:52:54;1.10;;;1.10;;
50002;SDS011;35889;51.442;6.408;2023-02-28T05:55:20;1.10;;;1.10;;
50002;SDS011;35889;51.442;6.408;2023-02-28T05:57:45;1.10;;;1.10;;
50002;SDS011;35889;51.442;6.408;2023-02-28T06:00:11;1.02;;;1.02;;
50002;SDS011;35889;51.442;6.408;2023-02-28T06:02:40;1.10;;;1.10;;
50002;SDS011;35889;51.442;6.408;2023-02-28T06:05:07;1.02;;;1.02;;
50002;SDS011;35889;51.442;6.408;2023-02-28T06:07:37;1.10;;;1.10;;
50002;SDS011;35889;51.442;6.408;2023-02-28T06:10:03;1.10;;;1.10;;
50002;SDS011;35889;51.442;6.408;2023-02-28T06:12:29;1.10;;;1.10;;
50002;SDS011;35889;51.442;6.408;2023-02-28T06:14:54;1.10;;;1.10;;
50002;SDS011;35889;51.442;6.408;2023-02-28T06:17:20;1.20;;;1.20;;
50002;SDS011;35889;51.442;6.408;2023-02-28T06:19:45;1.10;;;1.10;;
50002;SDS011;35889;51.442;6.408;2023-02-28T06:22:13;1.10;;;1.10;;
50002;SDS011;35889;51.442;6.408;2023-02-28T06:24:38;1.00;;;1.00;;
50002;SDS011;35889;51.442;6.408;2023-02-28T06:27:03;1.10;;;1.10;;
50002;SDS011;35889;51.442;6.408;2023-02-28T06:29:31;1.10;;;1.10;;
50002;SDS011;35889;51.442;6.408;2023-02-28T06:31:57;1.10;;;1.10;;
50002;SDS011;35889;51.442;6.408;2023-02-28T06:34:22;1.10;;;1.10;;
50002;SDS011;35889;51.442;6.408;2023-02-28T06:36:49;1.10;;;1.10;;
50002;SDS011;35889;51.442;6.408;2023-02-28T06:39:15;1.20;;;1.20;;
50002;SDS011;35889;51.442;6.408;2023-02-28T06:41:41;1.10;;;1.10;;
50002;SDS011;35889;51.442;6.408;2023-02-28T06:44:13;1.10;;;1.10;;
50002;SDS011;35889;51.442;6.408;2023-02-28T06:46:40;1.10;;;1.10;;
50002;SDS011;35889;51.442;6.408;2023-02-28T06:49:07;1.10;;;1.10;;
50002;SDS011;35889;51.442;6.408;2023-02-28T06:51:34;1.10;;;1.10;;
50002;SDS011;35889;51.442;6.408;2023-02-28T06:54:00;1.10;;;1.10;;
50002;SDS011;35889;51.442;6.408;2023-02-28T06:56:25;1.10;;;1.10;;
50002;SDS011;35889;51.442;6.408;2023-02-28T06:58:51;1.10;;;1.10;;
50002;SDS011;35889;51.442;6.408;2023-02-28T07:01:18;1.08;;;1.08;;
50002;SDS011;35889;51.442;6.408;2023-02-28T07:03:44;1.10;;;1.10;;
50002;SDS011;35889;51.442;6.408;2023-02-28T07:06:10;1.10;;;1.10;;
50002;SDS011;35889;51.442;6.408;2023-02-28T07:08:35;1.10;;;1.10;;
50002;SDS011;35889;51.442;6.408;2023-02-28T07:11:01;1.15;;;1.15;;
50002;SDS011;35889;51.442;6.408;2023-02-28T07:13:27;1.20;;;1.20;;
50002;SDS011;35889;51.442;6.408;2023-02-28T07:15:53;1.00;;;1.00;;
50002;SDS011;35889;51.442;6.408;2023-02-28T07:18:26;1.10;;;1.10;;
50002;SDS011;35889;51.442;6.408;2023-02-28T07:20:52;1.10;;;1.10;;
50002;SDS011;35889;51.442;6.408;2023-02-28T07:23:17;1.10;;;1.10;;
50002;SDS011;35889;51.442;6.408;2023-02-28T07:25:43;1.10;;;1.10;;
50002;SDS011;35889;51.442;6.408;2023-02-28T07:28:09;1.10;;;1.10;;
50002;SDS011;35889;51.442;6.408;2023-02-28T07:30:34;1.10;;;1.10;;
50002;SDS011;35889;51.442;6.408;2023-02-28T07:32:59;1.10;;;1.10;;
50002;SDS011;35889;51.442;6.408;2023-02-28T07:35:25;1.10;;;1.10;;
50002;SDS011;35889;51.442;6.408;2023-02-28T07:37:50;1.02;;;1.02;;
50002;SDS011;35889;51.442;6.408;2023-02-28T07:40:16;1.00;;;1.00;;
50002;SDS011;35889;51.442;6.408;2023-02-28T07:42:43;1.10;;;1.10;;
50002;SDS011;35889;51.442;6.408;2023-02-28T07:45:09;1.02;;;1.02;;
50002;SDS011;35889;51.442;6.408;2023-02-28T07:47:37;1.10;;;1.10;;
50002;SDS011;35889;51.442;6.408;2023-02-28T07:50:06;1.10;;;1.10;;
50002;SDS011;35889;51.442;6.408;2023-02-28T07:52:32;1.10;;;1.10;;
50002;SDS011;35889;51.442;6.408;2023-02-28T07:54:58;1.10;;;1.10;;
50002;SDS011;35889;51.442;6.408;2023-02-28T07:57:23;1.10;;;1.10;;
50002;SDS011;35889;51.442;6.408;2023-02-28T07:59:48;1.00;;;1.00;;
50002;SDS011;35889;51.442;6.408;2023-02-28T08:02:14;1.00;;;1.00;;
50002;SDS011;35889;51.442;6.408;2023-02-28T08:04:41;0.90;;;0.90;;
50002;SDS011;35889;51.442;6.408;2023-02-28T08:07:06;1.10;;;1.10;;
50002;SDS011;35889;51.442;6.408;2023-02-28T08:09:32;0.95;;;0.95;;
50002;SDS011;35889;51.442;6.408;2023-02-28T08:11:59;1.10;;;1.10;;
50002;SDS011;35889;51.442;6.408;2023-02-28T08:14:26;1.10;;;1.10;;
50002;SDS011;35889;51.442;6.408;2023-02-28T08:16:52;1.00;;;1.00;;
50002;SDS011;35889;51.442;6.408;2023-02-28T08:19:17;1.08;;;1.08;;
50002;SDS011;35889;51.442;6.408;2023-02-28T08:21:42;1.00;;;1.00;;
50002;SDS011;35889;51.442;6.408;2023-02-28T08:24:08;1.00;;;1.00;;
50002;SDS011;35889;51.442;6.408;2023-02-28T08:26:33;1.00;;;1.00;;
50002;SDS011;35889;51.442;6.408;2023-02-28T08:28:59;1.00;;;1.00;;
50002;SDS011;35889;51.442;6.408;2023-02-28T08:31:24;0.90;;;0.90;;
50002;SDS011;35889;51.442;6.408;2023-02-28T08:33:50;0.90;;;0.90;;
50002;SDS011;35889;51.442;6.408;2023-02-28T08:36:17;0.95;;;0.95;;
50002;SDS011;35889;51.442;6.408;2023-02-28T08:38:44;1.00;;;1.00;;
50002;SDS011;35889;51.442;6.408;2023-02-28T08:41:10;1.05;;;1.05;;
50002;SDS011;35889;51.442;6.408;2023-02-28T08:43:37;1.00;;;1.00;;
50002;SDS011;35889;51.442;6.408;2023-02-28T08:46:05;1.10;;;1.10;;
50002;SDS011;35889;51.442;6.408;2023-02-28T08:48:31;1.00;;;1.00;;
50002;SDS011;35889;51.442;6.408;2023-02-28T08:50:58;1.00;;;1.00;;
50002;SDS011;35889;51.442;6.408;2023-02-28T08:53:24;0.95;;;0.95;;
50002;SDS011;35889;51.442;6.408;2023-02-28T08:55:57;1.00;;;1.00;;
50002;SDS011;35889;51.442;6.408;2023-02-28T08:58:26;1.10;;;1.10;;
50002;SDS011;35889;51.442;6.408;2023-02-28T09:00:51;1.00;;;1.00;;
50002;SDS011;35889;51.442;6.408;2023-02-28T09:03:17;1.00;;;1.00;;
50002;SDS011;35889;51.442;6.408;2023-02-28T09:05:59;1.00;;;1.00;;
50002;SDS011;35889;51.442;6.408;2023-02-28T09:08:26;0.90;;;0.90;;
50002;SDS011;35889;51.442;6.408;2023-02-28T09:10:53;0.90;;;0.90;;
50002;SDS011;35889;51.442;6.408;2023-02-28T09:13:19;1.10;;;1.10;;
50002;SDS011;35889;51.442;6.408;2023-02-28T09:15:45;1.00;;;1.00;;
50002;SDS011;35889;51.442;6.408;2023-02-28T09:18:13;1.00;;;1.00;;
50002;SDS011;35889;51.442;6.408;2023-02-28T09:20:41;0.90;;;0.90;;
50002;SDS011;35889;51.442;6.408;2023-02-28T09:23:07;0.90;;;0.90;;
50002;SDS011;35889;51.442;6.408;2023-02-28T09:25:36;1.00;;;1.00;;
50002;SDS011;35889;51.442;6.408;2023-02-28T09:28:02;0.93;;;0.93;;
50002;SDS011;35889;51.442;6.408;2023-02-28T09:30:28;0.90;;;0.90;;
50002;SDS011;35889;51.442;6.408;2023-02-28T09:32:54;0.90;;;0.90;;
50002;SDS011;35889;51.442;6.408;2023-02-28T09:35:28;0.90;;;0.90;;
50002;SDS011;35889;51.442;6.408;2023-02-28T09:37:55;1.00;;;1.00;;
50002;SDS011;35889;51.442;6.408;2023-02-28T09:40:22;0.90;;;0.90;;
50002;SDS011;35889;51.442;6.408;2023-02-28T09:42:51;0.90;;;0.90;;
50002;SDS011;35889;51.442;6.408;2023-02-28T09:45:25;1.00;;;1.00;;
50002;SDS011;35889;51.442;6.408;2023-02-28T09:47:54;1.00;;;1.00;;
50002;SDS011;35889;51.442;6.408;2023-02-28T09:52:55;0.90;;;0.90;;
50002;SDS011;35889;51.442;6.408;2023-02-28T09:57:53;0.90;;;0.90;;
50002;SDS011;35889;51.442;6.408;2023-02-28T10:00:24;0.90;;;0.90;;
50002;SDS011;35889;51.442;6.408;2023-02-28T10:03:08;0.90;;;0.90;;
50002;SDS011;35889;51.442;6.408;2023-02-28T10:05:53;1.00;;;1.00;;
50002;SDS011;35889;51.442;6.408;2023-02-28T10:10:51;1.00;;;1.00;;
50002;SDS011;35889;51.442;6.408;2023-02-28T10:13:36;1.00;;;1.00;;
50002;SDS011;35889;51.442;6.408;2023-02-28T10:25:33;1.00;;;1.00;;
50002;SDS011;35889;51.442;6.408;2023-02-28T10:28:10;1.10;;;1.10;;
50002;SDS011;35889;51.442;6.408;2023-02-28T10:30:38;0.90;;;0.90;;
50002;SDS011;35889;51.442;6.408;2023-02-28T10:33:08;0.90;;;0.90;;
50002;SDS011;35889;51.442;6.408;2023-02-28T10:35:59;1.00;;;1.00;;
50002;SDS011;35889;51.442;6.408;2023-02-28T10:38:31;0.90;;;0.90;;
50002;SDS011;35889;51.442;6.408;2023-02-28T10:41:10;1.00;;;1.00;;
50002;SDS011;35889;51.442;6.408;2023-02-28T10:43:43;0.98;;;0.98;;
50002;SDS011;35889;51.442;6.408;2023-02-28T10:46:11;0.90;;;0.90;;
50002;SDS011;35889;51.442;6.408;2023-02-28T10:48:41;0.90;;;0.90;;
50002;SDS011;35889;51.442;6.408;2023-02-28T10:51:12;0.90;;;0.90;;
50002;SDS011;35889;51.442;6.408;2023-02-28T10:56:21;0.90;;;0.90;;
50002;SDS011;35889;51.442;6.408;2023-02-28T11:01:26;0.90;;;0.90;;
50002;SDS011;35889;51.442;6.408;2023-02-28T11:07:05;0.90;;;0.90;;
50002;SDS011;35889;51.442;6.408;2023-02-28T11:09:40;0.90;;;0.90;;
50002;SDS011;35889;51.442;6.408;2023-02-28T11:12:06;0.90;;;0.90;;
50002;SDS011;35889;51.442;6.408;2023-02-28T11:14:42;0.90;;;0.90;;
50002;SDS011;35889;51.442;6.408;2023-02-28T11:17:23;0.90;;;0.90;;
50002;SDS011;35889;51.442;6.408;2023-02-28T11:19:55;0.90;;;0.90;;
50002;SDS011;35889;51.442;6.408;2023-02-28T11:22:23;0.90;;;0.90;;
50002;SDS011;35889;51.442;6.408;2023-02-28T11:24:53;0.90;;;0.90;;
50002;SDS011;35889;51.442;6.408;2023-02-28T11:29:56;0.90;;;0.90;;
50002;SDS011;35889;51.442;6.408;2023-02-28T11:32:23;0.90;;;0.90;;
50002;SDS011;35889;51.442;6.408;2023-02-28T11:37:37;0.90;;;0.90;;
50002;SDS011;35889;51.442;6.408;2023-02-28T11:40:13;0.90;;;0.90;;
50002;SDS011;35889;51.442;6.408;2023-02-28T11:42:49;1.00;;;1.00;;
50002;SDS011;35889;51.442;6.408;2023-02-28T11:48:27;1.00;;;1.00;;
50002;SDS011;35889;51.442;6.408;2023-02-28T11:51:12;0.95;;;0.95;;
50002;SDS011;35889;51.442;6.408;2023-02-28T11:53:50;1.00;;;1.00;;
50002;SDS011;35889;51.442;6.408;2023-02-28T12:01:38;0.90;;;0.90;;
50002;SDS011;35889;51.442;6.408;2023-02-28T12:07:09;0.80;;;0.80;;
50002;SDS011;35889;51.442;6.408;2023-02-28T12:09:43;0.95;;;0.95;;
50002;SDS011;35889;51.442;6.408;2023-02-28T12:15:17;0.93;;;0.93;;
50002;SDS011;35889;51.442;6.408;2023-02-28T12:29:21;0.90;;;0.90;;
50002;SDS011;35889;51.442;6.408;2023-02-28T12:32:05;0.90;;;0.90;;
50002;SDS011;35889;51.442;6.408;2023-02-28T12:34:36;1.00;;;1.00;;
50002;SDS011;35889;51.442;6.408;2023-02-28T12:39:51;0.90;;;0.90;;
50002;SDS011;35889;51.442;6.408;2023-02-28T12:42:26;0.90;;;0.90;;
50002;SDS011;35889;51.442;6.408;2023-02-28T12:44:59;0.90;;;0.90;;
50002;SDS011;35889;51.442;6.408;2023-02-28T12:47:26;0.90;;;0.90;;
50002;SDS011;35889;51.442;6.408;2023-02-28T12:49:53;0.98;;;0.98;;
50002;SDS011;35889;51.442;6.408;2023-02-28T12:52:39;0.90;;;0.90;;
50002;SDS011;35889;51.442;6.408;2023-02-28T12:58:12;0.90;;;0.90;;
50002;SDS011;35889;51.442;6.408;2023-02-28T13:06:28;0.90;;;0.90;;
50002;SDS011;35889;51.442;6.408;2023-02-28T13:09:18;0.90;;;0.90;;
50002;SDS011;35889;51.442;6.408;2023-02-28T13:11:52;0.88;;;0.88;;
50002;SDS011;35889;51.442;6.408;2023-02-28T13:14:37;0.70;;;0.70;;
50002;SDS011;35889;51.442;6.408;2023-02-28T13:19:35;0.90;;;0.90;;
50002;SDS011;35889;51.442;6.408;2023-02-28T13:22:03;0.90;;;0.90;;
50002;SDS011;35889;51.442;6.408;2023-02-28T13:29:30;0.90;;;0.90;;
50002;SDS011;35889;51.442;6.408;2023-02-28T13:47:28;0.90;;;0.90;;
50002;SDS011;35889;51.442;6.408;2023-02-28T13:50:14;0.80;;;0.80;;
50002;SDS011;35889;51.442;6.408;2023-02-28T13:55:45;0.90;;;0.90;;
50002;SDS011;35889;51.442;6.408;2023-02-28T13:58:28;0.80;;;0.80;;
50002;SDS011;35889;51.442;6.408;2023-02-28T14:06:47;1.00;;;1.00;;
50002;SDS011;35889;51.442;6.408;2023-02-28T14:09:27;0.80;;;0.80;;
50002;SDS011;35889;51.442;6.408;2023-02-28T14:11:53;0.90;;;0.90;;
50002;SDS011;35889;51.442;6.408;2023-02-28T14:14:53;0.90;;;0.90;;
50002;SDS011;35889;51.442;6.408;2023-02-28T14:17:14;0.90;;;0.90;;
50002;SDS011;35889;51.442;6.408;2023-02-28T14:19:41;0.90;;;0.90;;
50002;SDS011;35889;51.442;6.408;2023-02-28T14:38:24;0.80;;;0.80;;
50002;SDS011;35889;51.442;6.408;2023-02-28T14:40:55;0.90;;;0.90;;
50002;SDS011;35889;51.442;6.408;2023-02-28T14:43:23;1.00;;;1.00;;
50002;SDS011;35889;51.442;6.408;2023-02-28T14:45:53;1.10;;;1.10;;
50002;SDS011;35889;51.442;6.408;2023-02-28T14:48:24;1.20;;;1.20;;
50002;SDS011;35889;51.442;6.408;2023-02-28T14:50:51;1.20;;;1.20;;
50002;SDS011;35889;51.442;6.408;2023-02-28T14:53:20;1.10;;;1.10;;
50002;SDS011;35889;51.442;6.408;2023-02-28T14:55:48;1.10;;;1.10;;
50002;SDS011;35889;51.442;6.408;2023-02-28T14:58:25;1.10;;;1.10;;
50002;SDS011;35889;51.442;6.408;2023-02-28T15:00:53;1.10;;;1.10;;
50002;SDS011;35889;51.442;6.408;2023-02-28T15:06:02;1.10;;;1.10;;
50002;SDS011;35889;51.442;6.408;2023-02-28T15:08:28;1.10;;;1.10;;
50002;SDS011;35889;51.442;6.408;2023-02-28T15:10:57;1.10;;;1.10;;
50002;SDS011;35889;51.442;6.408;2023-02-28T15:13:26;1.10;;;1.10;;
50002;SDS011;35889;51.442;6.408;2023-02-28T15:16:00;1.10;;;1.10;;
50002;SDS011;35889;51.442;6.408;2023-02-28T15:21:22;1.10;;;1.10;;
50002;SDS011;35889;51.442;6.408;2023-02-28T15:24:03;1.10;;;1.10;;
50002;SDS011;35889;51.442;6.408;2023-02-28T15:26:32;1.10;;;1.10;;
50002;SDS011;35889;51.442;6.408;2023-02-28T15:29:00;1.10;;;1.10;;
50002;SDS011;35889;51.442;6.408;2023-02-28T15:31:50;1.10;;;1.10;;
50002;SDS011;35889;51.442;6.408;2023-02-28T15:34:37;1.10;;;1.10;;
50002;SDS011;35889;51.442;6.408;2023-02-28T15:37:47;1.20;;;1.20;;
50002;SDS011;35889;51.442;6.408;2023-02-28T15:40:33;1.10;;;1.10;;
50002;SDS011;35889;51.442;6.408;2023-02-28T15:43:11;1.10;;;1.10;;
50002;SDS011;35889;51.442;6.408;2023-02-28T15:48:30;1.00;;;1.00;;
50002;SDS011;35889;51.442;6.408;2023-02-28T15:51:08;1.10;;;1.10;;
50002;SDS011;35889;51.442;6.408;2023-02-28T15:53:39;1.10;;;1.10;;
50002;SDS011;35889;51.442;6.408;2023-02-28T15:56:19;1.02;;;1.02;;
50002;SDS011;35889;51.442;6.408;2023-02-28T15:58:47;1.10;;;1.10;;
50002;SDS011;35889;51.442;6.408;2023-02-28T16:01:17;1.00;;;1.00;;
50002;SDS011;35889;51.442;6.408;2023-02-28T16:03:47;1.00;;;1.00;;
50002;SDS011;35889;51.442;6.408;2023-02-28T16:08:42;0.90;;;0.90;;
50002;SDS011;35889;51.442;6.408;2023-02-28T16:11:10;0.90;;;0.90;;
50002;SDS011;35889;51.442;6.408;2023-02-28T16:13:36;0.90;;;0.90;;
50002;SDS011;35889;51.442;6.408;2023-02-28T16:16:02;0.90;;;0.90;;
50002;SDS011;35889;51.442;6.408;2023-02-28T16:18:27;0.90;;;0.90;;
50002;SDS011;35889;51.442;6.408;2023-02-28T16:20:53;0.80;;;0.80;;
50002;SDS011;35889;51.442;6.408;2023-02-28T16:23:18;0.90;;;0.90;;
50002;SDS011;35889;51.442;6.408;2023-02-28T16:25:44;0.82;;;0.82;;
50002;SDS011;35889;51.442;6.408;2023-02-28T16:28:21;1.00;;;1.00;;
50002;SDS011;35889;51.442;6.408;2023-02-28T16:30:52;0.93;;;0.93;;
50002;SDS011;35889;51.442;6.408;2023-02-28T16:33:17;0.90;;;0.90;;
50002;SDS011;35889;51.442;6.408;2023-02-28T16:35:43;0.90;;;0.90;;
50002;SDS011;35889;51.442;6.408;2023-02-28T16:38:08;1.00;;;1.00;;
50002;SDS011;35889;51.442;6.408;2023-02-28T16:40:35;0.90;;;0.90;;
50002;SDS011;35889;51.442;6.408;2023-02-28T16:43:01;0.80;;;0.80;;
50002;SDS011;35889;51.442;6.408;2023-02-28T16:45:33;0.90;;;0.90;;
50002;SDS011;35889;51.442;6.408;2023-02-28T16:47:59;0.90;;;0.90;;
50002;SDS011;35889;51.442;6.408;2023-02-28T16:50:26;0.80;;;0.80;;
50002;SDS011;35889;51.442;6.408;2023-02-28T16:52:52;0.90;;;0.90;;
50002;SDS011;35889;51.442;6.408;2023-02-28T16:55:19;0.90;;;0.90;;
50002;SDS011;35889;51.442;6.408;2023-02-28T16:57:53;0.90;;;0.90;;
50002;SDS011;35889;51.442;6.408;2023-02-28T17:00:21;0.90;;;0.90;;
50002;SDS011;35889;51.442;6.408;2023-02-28T17:02:47;0.90;;;0.90;;
50002;SDS011;35889;51.442;6.408;2023-02-28T17:05:12;0.90;;;0.90;;
50002;SDS011;35889;51.442;6.408;2023-02-28T17:07:39;0.90;;;0.90;;
50002;SDS011;35889;51.442;6.408;2023-02-28T17:10:13;0.80;;;0.80;;
50002;SDS011;35889;51.442;6.408;2023-02-28T17:12:46;0.90;;;0.90;;
50002;SDS011;35889;51.442;6.408;2023-02-28T17:15:12;0.80;;;0.80;;
50002;SDS011;35889;51.442;6.408;2023-02-28T17:17:38;0.90;;;0.90;;
50002;SDS011;35889;51.442;6.408;2023-02-28T17:20:05;0.90;;;0.90;;
50002;SDS011;35889;51.442;6.408;2023-02-28T17:22:31;0.80;;;0.80;;
50002;SDS011;35889;51.442;6.408;2023-02-28T17:24:57;0.80;;;0.80;;
50002;SDS011;35889;51.442;6.408;2023-02-28T17:27:23;0.90;;;0.90;;
50002;SDS011;35889;51.442;6.408;2023-02-28T17:29:49;0.90;;;0.90;;
50002;SDS011;35889;51.442;6.408;2023-02-28T17:32:15;0.90;;;0.90;;
50002;SDS011;35889;51.442;6.408;2023-02-28T17:34:40;0.90;;;0.90;;
50002;SDS011;35889;51.442;6.408;2023-02-28T17:37:07;0.80;;;0.80;;
50002;SDS011;35889;51.442;6.408;2023-02-28T17:39:33;0.82;;;0.82;;
50002;SDS011;35889;51.442;6.408;2023-02-28T17:41:58;0.90;;;0.90;;